createdAt,value
2023-03-19T00:00:36.888Z,3.77
2023-03-19T00:05:39.089Z,3.07
2023-03-19T00:10:41.157Z,3.37
2023-03-19T00:15:43.298Z,2.90
2023-03-19T00:20:45.823Z,5.37
2023-03-19T00:25:47.958Z,3.93
2023-03-19T00:30:50.408Z,3.97
2023-03-19T00:35:52.463Z,3.87
2023-03-19T00:40:54.767Z,4.80
2023-03-19T00:45:56.843Z,5.20
2023-03-19T00:51:04.726Z,4.10
2023-03-19T00:56:07.694Z,7.17
2023-03-19T01:01:11.471Z,4.87
2023-03-19T01:06:13.969Z,3.17
2023-03-19T01:11:17.356Z,3.73
2023-03-19T01:16:19.356Z,5.53
2023-03-19T01:21:22.000Z,6.50
2023-03-19T01:26:25.443Z,5.23
2023-03-19T01:31:31.456Z,6.47
2023-03-19T01:36:52.328Z,5.10
2023-03-19T01:42:04.338Z,4.90
2023-03-19T01:47:31.473Z,6.60
2023-03-19T01:53:02.954Z,6.40
2023-03-19T01:58:18.785Z,6.33
2023-03-19T02:03:42.617Z,6.87
2023-03-19T02:08:53.224Z,7.03
2023-03-19T02:13:55.114Z,7.47
2023-03-19T02:18:57.971Z,7.67
2023-03-19T02:24:17.204Z,8.73
2023-03-19T02:29:39.302Z,9.87
2023-03-19T02:34:43.643Z,10.33
2023-03-19T02:39:45.649Z,10.57
2023-03-19T02:44:47.795Z,13.13
2023-03-19T02:49:49.803Z,12.43
2023-03-19T02:54:51.682Z,13.17
2023-03-19T02:59:53.772Z,14.37
2023-03-19T03:04:55.847Z,17.07
2023-03-19T03:10:00.429Z,12.10
2023-03-19T03:15:03.803Z,15.17
2023-03-19T03:20:08.077Z,12.77
2023-03-19T03:25:11.306Z,13.97
2023-03-19T03:30:13.847Z,14.07
2023-03-19T03:35:21.744Z,14.77
2023-03-19T03:40:25.666Z,13.77
2023-03-19T03:45:27.977Z,17.43
2023-03-19T03:50:30.624Z,17.17
2023-03-19T03:55:37.735Z,17.10
2023-03-19T04:00:41.093Z,17.23
2023-03-19T04:05:47.540Z,15.80
2023-03-19T04:10:49.627Z,15.97
2023-03-19T04:15:54.754Z,16.67
2023-03-19T04:20:57.807Z,18.83
2023-03-19T04:26:01.745Z,19.17
2023-03-19T04:31:06.861Z,19.13
2023-03-19T04:36:12.048Z,24.57
2023-03-19T04:41:16.222Z,29.53
2023-03-19T04:46:28.630Z,25.80
2023-03-19T04:51:30.950Z,21.43
2023-03-19T04:56:33.355Z,20.90
2023-03-19T05:01:36.467Z,20.53
2023-03-19T05:06:41.896Z,17.87
2023-03-19T05:11:44.312Z,20.10
2023-03-19T05:16:52.976Z,13.80
2023-03-19T05:21:57.465Z,25.73
2023-03-19T05:27:01.225Z,22.53
2023-03-19T05:32:19.050Z,20.30
2023-03-19T05:37:22.492Z,22.97
2023-03-19T05:42:31.285Z,21.20
2023-03-19T05:47:35.076Z,20.87
2023-03-19T05:52:37.827Z,23.57
2023-03-19T05:57:40.339Z,22.53
2023-03-19T06:02:44.888Z,19.60
2023-03-19T06:08:10.146Z,19.10
2023-03-19T06:13:43.635Z,23.57
2023-03-19T06:18:50.940Z,18.17
2023-03-19T06:23:54.111Z,17.20
2023-03-19T06:29:04.264Z,17.23
2023-03-19T06:34:06.244Z,18.30
2023-03-19T06:39:17.432Z,15.03
2023-03-19T06:44:19.451Z,17.57
2023-03-19T06:49:21.981Z,15.27
2023-03-19T06:54:24.084Z,13.53
2023-03-19T06:59:26.607Z,14.33
2023-03-19T07:04:29.441Z,15.30
2023-03-19T07:09:32.300Z,12.43
2023-03-19T07:14:34.321Z,12.27
2023-03-19T07:19:36.167Z,20.97
2023-03-19T07:24:38.258Z,12.93
2023-03-19T07:29:40.360Z,11.80
2023-03-19T07:34:42.249Z,11.47
2023-03-19T07:39:44.144Z,8.47
2023-03-19T07:44:46.023Z,8.00
2023-03-19T07:49:48.323Z,14.40
2023-03-19T07:54:50.671Z,15.07
2023-03-19T07:59:53.049Z,15.20
2023-03-19T08:04:56.028Z,11.47
2023-03-19T08:09:59.035Z,10.33
2023-03-19T08:15:01.294Z,14.93
2023-03-19T08:20:05.463Z,14.25
2023-03-19T08:25:08.679Z,11.05
2023-03-19T08:30:11.479Z,12.52
2023-03-19T08:35:14.170Z,12.98
2023-03-19T08:40:16.631Z,14.05
2023-03-19T08:45:21.148Z,11.90
2023-03-19T08:50:23.771Z,12.73
2023-03-19T08:55:25.833Z,9.25
2023-03-19T09:00:28.259Z,11.80
2023-03-19T09:05:30.397Z,10.73
2023-03-19T09:10:33.126Z,10.38
2023-03-19T09:15:35.557Z,10.20
2023-03-19T09:20:37.849Z,9.45
2023-03-19T09:25:40.259Z,11.95
2023-03-19T09:30:43.380Z,10.20
2023-03-19T09:35:53.046Z,11.90
2023-03-19T09:41:16.603Z,14.70
2023-03-19T09:46:23.076Z,11.68
2023-03-19T09:51:35.610Z,11.48
2023-03-19T09:56:37.565Z,9.85
2023-03-19T10:01:45.525Z,12.35
2023-03-19T10:06:47.662Z,7.68
2023-03-19T10:12:05.209Z,8.68
2023-03-19T10:17:14.532Z,10.95
2023-03-19T10:22:21.928Z,9.10
2023-03-19T10:27:28.692Z,10.77
2023-03-19T10:32:46.538Z,8.40
2023-03-19T10:37:50.686Z,10.40
2023-03-19T10:43:00.967Z,13.40
2023-03-19T10:48:05.482Z,9.98
2023-03-19T10:53:29.394Z,10.68
2023-03-19T10:58:33.940Z,8.30
2023-03-19T11:03:49.516Z,7.95
2023-03-19T11:09:15.534Z,13.70
2023-03-19T11:14:26.634Z,9.15
2023-03-19T11:19:31.700Z,8.10
2023-03-19T11:24:37.809Z,7.50
2023-03-19T11:29:44.881Z,9.70
2023-03-19T11:35:13.322Z,11.18
2023-03-19T11:40:44.331Z,11.82
2023-03-19T11:46:24.398Z,9.85
2023-03-19T11:51:36.342Z,15.50
2023-03-19T11:56:47.192Z,14.45
2023-03-19T12:02:26.847Z,15.98
2023-03-19T12:07:42.463Z,17.50
2023-03-19T12:12:57.488Z,14.82
2023-03-19T12:18:30.204Z,16.10
2023-03-19T12:23:39.286Z,17.20
2023-03-19T12:28:57.806Z,18.92
2023-03-19T12:34:24.871Z,12.05
2023-03-19T12:39:34.564Z,16.08
2023-03-19T12:44:39.101Z,16.10
2023-03-19T12:49:48.383Z,15.20
2023-03-19T12:55:05.801Z,12.93
2023-03-19T13:00:20.302Z,13.57
2023-03-19T13:05:29.435Z,13.30
2023-03-19T13:10:35.213Z,11.75
2023-03-19T13:15:46.065Z,8.77
2023-03-19T13:21:29.496Z,7.10
2023-03-19T13:26:33.041Z,9.23
2023-03-19T13:31:36.637Z,7.72
2023-03-19T13:36:39.553Z,9.00
2023-03-19T13:41:42.636Z,6.72
2023-03-19T13:46:45.275Z,9.93
2023-03-19T13:51:50.706Z,7.55
2023-03-19T13:57:01.021Z,9.45
2023-03-19T14:02:22.882Z,9.32
2023-03-19T14:07:28.152Z,9.10
2023-03-19T14:12:34.125Z,11.48
2023-03-19T14:17:48.486Z,6.27
2023-03-19T14:23:03.389Z,7.45
2023-03-19T14:28:10.448Z,5.20
2023-03-19T14:33:22.774Z,5.90
2023-03-19T14:39:06.886Z,8.88
2023-03-19T14:44:46.010Z,8.13
2023-03-19T14:50:17.408Z,9.73
2023-03-19T14:55:19.387Z,10.53
2023-03-19T15:00:22.622Z,7.00
2023-03-19T15:05:36.711Z,8.23
2023-03-19T15:11:00.941Z,5.17
2023-03-19T15:16:24.201Z,3.40
2023-03-19T15:21:26.728Z,6.13
2023-03-19T15:26:37.570Z,4.10
2023-03-19T15:31:57.605Z,5.90
2023-03-19T15:37:14.137Z,3.90
2023-03-19T15:42:17.079Z,3.47
2023-03-19T15:47:28.935Z,5.43
2023-03-19T15:52:39.560Z,8.57
2023-03-19T15:57:42.761Z,6.07
2023-03-19T16:02:49.261Z,8.07
2023-03-19T16:08:00.428Z,4.97
2023-03-19T16:13:05.549Z,6.07
2023-03-19T16:18:16.606Z,6.80
2023-03-19T16:23:19.255Z,7.07
2023-03-19T16:28:25.182Z,6.50
2023-03-19T16:33:27.662Z,7.70
2023-03-19T16:39:13.816Z,7.17
2023-03-19T16:44:19.202Z,13.47
2023-03-19T16:49:21.484Z,14.33
2023-03-19T16:54:23.917Z,14.43
2023-03-19T16:59:31.023Z,13.87
2023-03-19T17:04:33.034Z,18.63
2023-03-19T17:09:35.225Z,14.33
2023-03-19T17:14:37.542Z,6.87
2023-03-19T17:19:40.430Z,5.17
2023-03-19T17:24:42.823Z,6.43
2023-03-19T17:29:44.854Z,7.60
2023-03-19T17:34:48.025Z,11.23
2023-03-19T17:39:51.052Z,8.73
2023-03-19T17:44:53.084Z,8.03
2023-03-19T17:49:56.375Z,6.97
2023-03-19T17:54:58.390Z,7.17
2023-03-19T18:00:00.382Z,6.00
2023-03-19T18:05:02.857Z,6.20
2023-03-19T18:10:05.232Z,8.47
2023-03-19T18:15:07.635Z,12.27
2023-03-19T18:20:17.155Z,9.57
2023-03-19T18:25:25.616Z,8.20
2023-03-19T18:30:29.751Z,9.10
2023-03-19T18:35:36.200Z,7.57
2023-03-19T18:40:38.331Z,9.23
2023-03-19T18:45:41.973Z,8.73
2023-03-19T18:50:43.947Z,9.60
2023-03-19T18:55:47.197Z,8.77
2023-03-19T19:00:50.857Z,8.37
2023-03-19T19:05:53.878Z,7.57
2023-03-19T19:11:03.948Z,9.47
2023-03-19T19:16:06.164Z,6.63
2023-03-19T19:21:08.819Z,8.37
2023-03-19T19:26:21.693Z,7.17
2023-03-19T19:31:26.743Z,9.77
2023-03-19T19:36:29.047Z,8.67
2023-03-19T19:41:33.908Z,10.87
2023-03-19T19:46:36.071Z,12.83
2023-03-19T19:51:39.075Z,10.17
2023-03-19T19:56:41.901Z,8.90
2023-03-19T20:01:44.035Z,9.63
2023-03-19T20:06:46.077Z,8.73
2023-03-19T20:11:48.456Z,9.63
2023-03-19T20:16:50.827Z,8.70
2023-03-19T20:21:53.399Z,11.27
2023-03-19T20:26:55.541Z,10.43
2023-03-19T20:31:59.051Z,7.80
2023-03-19T20:37:01.332Z,9.40
2023-03-19T20:42:03.740Z,10.93
2023-03-19T20:47:15.813Z,7.97
2023-03-19T20:52:18.121Z,14.13
2023-03-19T20:57:29.043Z,9.20
2023-03-19T21:02:31.061Z,11.10
2023-03-19T21:07:34.672Z,9.73
2023-03-19T21:12:36.709Z,11.43
2023-03-19T21:17:39.032Z,16.43
2023-03-19T21:22:41.894Z,10.80
2023-03-19T21:27:47.248Z,18.70
2023-03-19T21:32:49.845Z,13.90
2023-03-19T21:37:52.727Z,14.63
2023-03-19T21:43:01.282Z,17.50
2023-03-19T21:48:09.334Z,20.57
2023-03-19T21:53:12.845Z,18.50
2023-03-19T21:58:17.820Z,11.43
2023-03-19T22:03:21.806Z,10.60
2023-03-19T22:08:25.731Z,13.33
2023-03-19T22:13:35.882Z,16.60
2023-03-19T22:18:37.905Z,13.87
2023-03-19T22:23:39.893Z,15.07
2023-03-19T22:28:41.824Z,15.73
2023-03-19T22:33:43.717Z,13.33
2023-03-19T22:38:47.063Z,14.93
2023-03-19T22:43:50.034Z,14.93
2023-03-19T22:48:52.418Z,14.70
2023-03-19T22:53:55.496Z,13.83
2023-03-19T22:58:57.676Z,16.47
2023-03-19T23:04:21.947Z,19.00
2023-03-19T23:09:32.557Z,14.93
2023-03-19T23:14:36.638Z,12.03
2023-03-19T23:19:38.802Z,13.20
2023-03-19T23:24:42.192Z,14.40
2023-03-19T23:29:44.642Z,16.43
2023-03-19T23:34:58.071Z,15.03
2023-03-19T23:40:02.321Z,11.67
2023-03-19T23:45:05.256Z,15.87
2023-03-19T23:50:12.957Z,18.43
2023-03-19T23:55:14.824Z,17.47
